Gloria C — 3EDE3 — position and weather

sailwx.info

Track history (hours):
 
Tides and Currents Weather Stations Pressure Air Temp Water Temp Dewpoint Dewpoint Depression Visibility Wind Speed Wind Dir Waves Ship Positions

Gloria C

Last reported at 2017-Aug-20 11:39 UTC. Time now 2017-Sep-23 00:26 UTC.
Position N 32°05' W 019°54'.
Warning: this ship's position is 33 days out of date.

Length 92 m; draft 6.6 m.

Type: Ship. MMSI: 351070000.

Date/timePositionNaut miles runAvg speedWind from/ knotsBaromVisibWave heightAir tempDewpointWater temp
2017-Aug-20 11:39N 32°05' W 019°54'3310.1
2017-Aug-20 08:21N 32°12' W 019°16'3 9.8
2017-Aug-20 08:00N 32°13' W 019°12'5 9.9
2017-Aug-20 07:30N 32°14' W 019°06'2610.1
2017-Aug-20 04:57N 32°19' W 018°37'1610.6
2017-Aug-20 03:28N 32°22' W 018°18'610.6
2017-Aug-20 02:52N 32°23' W 018°11'710.4
2017-Aug-20 02:10N 32°25' W 018°03'1 7.3
2017-Aug-20 02:00N 32°25' W 018°01'1 1.2
2017-Aug-20 01:30N 32°25' W 018°01'4 7.9
2017-Aug-20 01:00N 32°26' W 017°56'5 9.4
2017-Aug-20 00:30N 32°27' W 017°51'5 9.3
2017-Aug-19 23:57N 32°28' W 017°45'40 9.3
2017-Aug-19 19:40N 32°36' W 016°58'  
2017-Aug-17 08:14N 35°15' W 008°27'3 9.4
2017-Aug-17 07:58N 35°16' W 008°24'143 9.8
2017-Aug-16 17:26N 35°58' W 005°36'7 9.3
2017-Aug-16 16:42N 35°59' W 005°28'210.0
2017-Aug-16 16:30N 35°60' W 005°25'510.0
2017-Aug-16 16:00N 35°59' W 005°19'510.1
2017-Aug-16 15:30N 35°54' W 005°19'1 1.5
2017-Aug-16 15:00N 35°54' W 005°19'0 0.0
2017-Aug-16 14:30N 35°54' W 005°19'0 0.0
2017-Aug-16 14:01N 35°54' W 005°19'0 0.0
2017-Aug-16 13:30N 35°54' W 005°19'0 0.0
2017-Aug-16 13:00N 35°54' W 005°19'0 0.0
2017-Aug-16 12:30N 35°54' W 005°19'0 0.0
2017-Aug-16 12:00N 35°54' W 005°19'0 0.0
2017-Aug-16 11:31N 35°54' W 005°19'0 0.0
2017-Aug-16 11:00N 35°54' W 005°19'0 0.5
2017-Aug-16 10:30N 35°54' W 005°19'2 3.7
2017-Aug-16 10:00N 35°55' W 005°18'1 1.2
2017-Aug-16 09:30N 35°56' W 005°18'0 0.7
2017-Aug-16 09:00N 35°56' W 005°19'1 2.1
2017-Aug-16 08:30N 35°56' W 005°18'0 0.3
2017-Aug-16 08:00N 35°56' W 005°18'0 0.7
2017-Aug-16 07:30N 35°56' W 005°18'0 0.6
2017-Aug-16 07:00N 35°56' W 005°18'0 0.2
2017-Aug-16 06:30N 35°56' W 005°18'0 0.8
2017-Aug-16 06:00N 35°56' W 005°18'0 0.6
2017-Aug-16 05:30N 35°56' W 005°19'0 0.3
2017-Aug-16 05:00N 35°56' W 005°19'0 0.3
2017-Aug-16 04:30N 35°56' W 005°19'0 0.5
2017-Aug-16 04:00N 35°56' W 005°19'0 0.1
2017-Aug-16 03:30N 35°56' W 005°19'0 0.3
2017-Aug-16 03:00N 35°56' W 005°19'1 1.9
2017-Aug-16 02:30N 35°55' W 005°19'0 0.3
2017-Aug-16 01:57N 35°55' W 005°20'0 0.0
2017-Aug-16 01:28N 35°55' W 005°20'0 0.0
2017-Aug-16 00:55N 35°55' W 005°20'0 0.0
2017-Aug-16 00:28N 35°55' W 005°20'0 0.1
2017-Aug-15 23:58N 35°55' W 005°20'0 0.0
2017-Aug-15 23:28N 35°55' W 005°20'0 0.0
2017-Aug-15 22:58N 35°55' W 005°20'0 0.0
2017-Aug-15 22:28N 35°55' W 005°19'0 0.0
2017-Aug-15 21:58N 35°55' W 005°19'0 0.1
2017-Aug-15 21:30N 35°55' W 005°19'0 0.1
2017-Aug-15 20:57N 35°55' W 005°19'0 0.0
2017-Aug-15 20:30N 35°55' W 005°19'0 0.0
2017-Aug-15 20:00N 35°55' W 005°19'0 0.1
2017-Aug-15 19:30N 35°55' W 005°19'0 0.7
2017-Aug-15 19:00N 35°55' W 005°19'2 3.4
2017-Aug-15 18:30N 35°56' W 005°17'3 3.0
2017-Aug-15 17:30N 35°56' W 005°14'0 0.4
2017-Aug-15 17:00N 35°56' W 005°14'0 0.5
2017-Aug-15 16:30N 35°56' W 005°14'0 0.4
2017-Aug-15 15:58N 35°56' W 005°14'0 0.2
2017-Aug-15 15:21N 35°56' W 005°14'0 0.2
2017-Aug-15 14:55N 35°56' W 005°14'1 0.5
2017-Aug-15 12:24N 35°56' W 005°13'0 0.9
2017-Aug-15 11:54N 35°56' W 005°12'1 2.6
2017-Aug-15 11:30N 35°56' W 005°14'0 0.9
2017-Aug-15 10:59N 35°56' W 005°13'5 2.4
2017-Aug-15 08:58N 35°56' W 005°07'4 2.7
2017-Aug-15 07:41N 35°56' W 005°12'1 2.8
2017-Aug-15 07:30N 35°56' W 005°12'214 9.3
2017-Aug-14 08:27N 37°14' W 001°04'510.1
2017-Aug-14 07:58N 37°17' W 000°59'510.3
2017-Aug-14 07:30N 37°20' W 000°54'510.5
2017-Aug-14 06:59N 37°23' W 000°49'510.1
2017-Aug-14 06:30N 37°27' W 000°44'510.0
2017-Aug-14 06:00N 37°30' W 000°40'5 9.8
2017-Aug-14 05:30N 37°33' W 000°35'5 9.7
2017-Aug-14 05:00N 37°36' W 000°31'5 9.9
2017-Aug-14 04:30N 37°40' W 000°26'4 7.4
2017-Aug-14 04:00N 37°42' W 000°23'510.0
2017-Aug-14 03:27N 37°46' W 000°18'17 9.9
2017-Aug-14 01:43N 37°58' W 000°02'23 9.8
2017-Aug-13 23:24N 38°13' E 000°20'6 9.7
2017-Aug-13 22:49N 38°14' E 000°27'14 9.4
2017-Aug-13 21:19N 38°18' E 000°44'20 9.1
2017-Aug-13 19:05N 38°24' E 001°09'47 9.7
2017-Aug-13 14:17N 38°36' E 002°06'410.2
2017-Aug-13 13:53N 38°37' E 002°11'410.1
2017-Aug-13 13:29N 38°39' E 002°16'610.3
2017-Aug-13 12:57N 38°40' E 002°23'1510.7
2017-Aug-13 11:34N 38°44' E 002°41'110.8
2017-Aug-13 11:30N 38°44' E 002°42'510.7
2017-Aug-13 11:00N 38°46' E 002°49'610.5
2017-Aug-13 10:23N 38°47' E 002°57'410.4
2017-Aug-13 10:00N 38°48' E 003°02'510.4
2017-Aug-13 09:30N 38°50' E 003°08'510.2
2017-Aug-13 09:00N 38°51' E 003°15'610.2
2017-Aug-13 08:27N 38°53' E 003°22'510.3
2017-Aug-13 07:59N 38°54' E 003°28'510.2
2017-Aug-13 07:30N 38°55' E 003°34'  
2017-Aug-10 20:13N 43°10' E 008°53'1 5.5
2017-Aug-10 20:00N 43°10' E 008°55'3 5.5
2017-Aug-10 19:25N 43°10' E 008°59'2 5.5
2017-Aug-10 19:00N 43°11' E 009°02'7 5.7
2017-Aug-10 17:46N 43°12' E 009°12'2 6.2
2017-Aug-10 17:29N 43°13' E 009°14'3 6.0
2017-Aug-10 17:00N 43°13' E 009°18'9 6.4
2017-Aug-10 15:39N 43°15' E 009°29'2 6.1
2017-Aug-10 15:24N 43°15' E 009°32'3 6.6
2017-Aug-10 14:59N 43°15' E 009°35'3 6.4
2017-Aug-10 14:30N 43°16' E 009°39'3 6.5
2017-Aug-10 14:01N 43°16' E 009°44'3 6.6
2017-Aug-10 13:30N 43°17' E 009°48'3 6.9
2017-Aug-10 13:00N 43°18' E 009°53'3 6.9
2017-Aug-10 12:30N 43°18' E 009°58'3 7.0
2017-Aug-10 12:00N 43°21' E 010°01'  
Track history (hours):
 
Tides and Currents Weather Stations Pressure Air Temp Water Temp Dewpoint Dewpoint Depression Visibility Wind Speed Wind Dir Waves Ship Positions

Gloria C

Last reported at 2017-Aug-20 11:39 UTC. Time now 2017-Sep-23 00:26 UTC.
Position N 32°05' W 019°54'.
Warning: this ship's position is 33 days out of date.

Length 92 m; draft 6.6 m.

Type: Ship. MMSI: 351070000.

Date/timePositionNaut miles runAvg speedWind from/ knotsBaromVisibWave heightAir tempDewpointWater temp
2017-Aug-20 11:39N 32°05' W 019°54'3310.1
2017-Aug-20 08:21N 32°12' W 019°16'3 9.8
2017-Aug-20 08:00N 32°13' W 019°12'5 9.9
2017-Aug-20 07:30N 32°14' W 019°06'2610.1
2017-Aug-20 04:57N 32°19' W 018°37'1610.6
2017-Aug-20 03:28N 32°22' W 018°18'610.6
2017-Aug-20 02:52N 32°23' W 018°11'710.4
2017-Aug-20 02:10N 32°25' W 018°03'1 7.3
2017-Aug-20 02:00N 32°25' W 018°01'1 1.2
2017-Aug-20 01:30N 32°25' W 018°01'4 7.9
2017-Aug-20 01:00N 32°26' W 017°56'5 9.4
2017-Aug-20 00:30N 32°27' W 017°51'5 9.3
2017-Aug-19 23:57N 32°28' W 017°45'40 9.3
2017-Aug-19 19:40N 32°36' W 016°58'  
2017-Aug-17 08:14N 35°15' W 008°27'3 9.4
2017-Aug-17 07:58N 35°16' W 008°24'143 9.8
2017-Aug-16 17:26N 35°58' W 005°36'7 9.3
2017-Aug-16 16:42N 35°59' W 005°28'210.0
2017-Aug-16 16:30N 35°60' W 005°25'510.0
2017-Aug-16 16:00N 35°59' W 005°19'510.1
2017-Aug-16 15:30N 35°54' W 005°19'1 1.5
2017-Aug-16 15:00N 35°54' W 005°19'0 0.0
2017-Aug-16 14:30N 35°54' W 005°19'0 0.0
2017-Aug-16 14:01N 35°54' W 005°19'0 0.0
2017-Aug-16 13:30N 35°54' W 005°19'0 0.0
2017-Aug-16 13:00N 35°54' W 005°19'0 0.0
2017-Aug-16 12:30N 35°54' W 005°19'0 0.0
2017-Aug-16 12:00N 35°54' W 005°19'0 0.0
2017-Aug-16 11:31N 35°54' W 005°19'0 0.0
2017-Aug-16 11:00N 35°54' W 005°19'0 0.5
2017-Aug-16 10:30N 35°54' W 005°19'2 3.7
2017-Aug-16 10:00N 35°55' W 005°18'1 1.2
2017-Aug-16 09:30N 35°56' W 005°18'0 0.7
2017-Aug-16 09:00N 35°56' W 005°19'1 2.1
2017-Aug-16 08:30N 35°56' W 005°18'0 0.3
2017-Aug-16 08:00N 35°56' W 005°18'0 0.7
2017-Aug-16 07:30N 35°56' W 005°18'0 0.6
2017-Aug-16 07:00N 35°56' W 005°18'0 0.2
2017-Aug-16 06:30N 35°56' W 005°18'0 0.8
2017-Aug-16 06:00N 35°56' W 005°18'0 0.6
2017-Aug-16 05:30N 35°56' W 005°19'0 0.3
2017-Aug-16 05:00N 35°56' W 005°19'0 0.3
2017-Aug-16 04:30N 35°56' W 005°19'0 0.5
2017-Aug-16 04:00N 35°56' W 005°19'0 0.1
2017-Aug-16 03:30N 35°56' W 005°19'0 0.3
2017-Aug-16 03:00N 35°56' W 005°19'1 1.9
2017-Aug-16 02:30N 35°55' W 005°19'0 0.3
2017-Aug-16 01:57N 35°55' W 005°20'0 0.0
2017-Aug-16 01:28N 35°55' W 005°20'0 0.0
2017-Aug-16 00:55N 35°55' W 005°20'0 0.0
2017-Aug-16 00:28N 35°55' W 005°20'0 0.1
2017-Aug-15 23:58N 35°55' W 005°20'0 0.0
2017-Aug-15 23:28N 35°55' W 005°20'0 0.0
2017-Aug-15 22:58N 35°55' W 005°20'0 0.0
2017-Aug-15 22:28N 35°55' W 005°19'0 0.0
2017-Aug-15 21:58N 35°55' W 005°19'0 0.1
2017-Aug-15 21:30N 35°55' W 005°19'0 0.1
2017-Aug-15 20:57N 35°55' W 005°19'0 0.0
2017-Aug-15 20:30N 35°55' W 005°19'0 0.0
2017-Aug-15 20:00N 35°55' W 005°19'0 0.1
2017-Aug-15 19:30N 35°55' W 005°19'0 0.7
2017-Aug-15 19:00N 35°55' W 005°19'2 3.4
2017-Aug-15 18:30N 35°56' W 005°17'3 3.0
2017-Aug-15 17:30N 35°56' W 005°14'0 0.4
2017-Aug-15 17:00N 35°56' W 005°14'0 0.5
2017-Aug-15 16:30N 35°56' W 005°14'0 0.4
2017-Aug-15 15:58N 35°56' W 005°14'0 0.2
2017-Aug-15 15:21N 35°56' W 005°14'0 0.2
2017-Aug-15 14:55N 35°56' W 005°14'1 0.5
2017-Aug-15 12:24N 35°56' W 005°13'0 0.9
2017-Aug-15 11:54N 35°56' W 005°12'1 2.6
2017-Aug-15 11:30N 35°56' W 005°14'0 0.9
2017-Aug-15 10:59N 35°56' W 005°13'5 2.4
2017-Aug-15 08:58N 35°56' W 005°07'4 2.7
2017-Aug-15 07:41N 35°56' W 005°12'1 2.8
2017-Aug-15 07:30N 35°56' W 005°12'214 9.3
2017-Aug-14 08:27N 37°14' W 001°04'510.1
2017-Aug-14 07:58N 37°17' W 000°59'510.3
2017-Aug-14 07:30N 37°20' W 000°54'510.5
2017-Aug-14 06:59N 37°23' W 000°49'510.1
2017-Aug-14 06:30N 37°27' W 000°44'510.0
2017-Aug-14 06:00N 37°30' W 000°40'5 9.8
2017-Aug-14 05:30N 37°33' W 000°35'5 9.7
2017-Aug-14 05:00N 37°36' W 000°31'5 9.9
2017-Aug-14 04:30N 37°40' W 000°26'4 7.4
2017-Aug-14 04:00N 37°42' W 000°23'510.0
2017-Aug-14 03:27N 37°46' W 000°18'17 9.9
2017-Aug-14 01:43N 37°58' W 000°02'23 9.8
2017-Aug-13 23:24N 38°13' E 000°20'6 9.7
2017-Aug-13 22:49N 38°14' E 000°27'14 9.4
2017-Aug-13 21:19N 38°18' E 000°44'20 9.1
2017-Aug-13 19:05N 38°24' E 001°09'47 9.7
2017-Aug-13 14:17N 38°36' E 002°06'410.2
2017-Aug-13 13:53N 38°37' E 002°11'410.1
2017-Aug-13 13:29N 38°39' E 002°16'610.3
2017-Aug-13 12:57N 38°40' E 002°23'1510.7
2017-Aug-13 11:34N 38°44' E 002°41'110.8
2017-Aug-13 11:30N 38°44' E 002°42'510.7
2017-Aug-13 11:00N 38°46' E 002°49'610.5
2017-Aug-13 10:23N 38°47' E 002°57'410.4
2017-Aug-13 10:00N 38°48' E 003°02'510.4
2017-Aug-13 09:30N 38°50' E 003°08'510.2
2017-Aug-13 09:00N 38°51' E 003°15'610.2
2017-Aug-13 08:27N 38°53' E 003°22'510.3
2017-Aug-13 07:59N 38°54' E 003°28'510.2
2017-Aug-13 07:30N 38°55' E 003°34'  
2017-Aug-10 20:13N 43°10' E 008°53'1 5.5
2017-Aug-10 20:00N 43°10' E 008°55'3 5.5
2017-Aug-10 19:25N 43°10' E 008°59'2 5.5
2017-Aug-10 19:00N 43°11' E 009°02'7 5.7
2017-Aug-10 17:46N 43°12' E 009°12'2 6.2
2017-Aug-10 17:29N 43°13' E 009°14'3 6.0
2017-Aug-10 17:00N 43°13' E 009°18'9 6.4
2017-Aug-10 15:39N 43°15' E 009°29'2 6.1
2017-Aug-10 15:24N 43°15' E 009°32'3 6.6
2017-Aug-10 14:59N 43°15' E 009°35'3 6.4
2017-Aug-10 14:30N 43°16' E 009°39'3 6.5
2017-Aug-10 14:01N 43°16' E 009°44'3 6.6
2017-Aug-10 13:30N 43°17' E 009°48'3 6.9
2017-Aug-10 13:00N 43°18' E 009°53'3 6.9
2017-Aug-10 12:30N 43°18' E 009°58'3 7.0
2017-Aug-10 12:00N 43°21' E 010°01'  

Dump ship's entire track history